Weather at Alfredo Noa Díaz Airport

Public forecast

Using degrees Celsius for public forecast. Weather courtesy of forecast.io.

Closest aviation weather report (METAR) to Alfredo Noa Díaz Airport

Closest report is Leeward Point Field, 63.0 nm (116.7 km) WSW.

2022/11/30 15:51 (retrieved 40 minutes ago)

MUGM 301551Z VRB04KT 10SM FEW025 32/22 A3000 RMK AO2 SLP157 T03170217

Closest aviation forecast (TAF) to Alfredo Noa Díaz Airport

Closest forecast is Antonio Maceo International Airport, 96.5 nm (178.8 km) W.

2022/11/30 12:03 (retrieved 4 hours ago)

TAF MUCU 301100Z 3012/0112 36005KT 9000 SCT020 BECMG 3015/3017 15010KT BECMG 0101/0103 36005KT